createdAt,value
2022-10-22T00:01:02.295Z,90.93
2022-10-22T00:03:33.030Z,90.95
2022-10-22T00:06:03.454Z,90.97
2022-10-22T00:08:34.004Z,90.91
2022-10-22T00:11:13.148Z,90.94
2022-10-22T00:13:44.055Z,90.91
2022-10-22T00:16:14.774Z,90.92
2022-10-22T00:18:45.223Z,90.91
2022-10-22T00:21:15.799Z,90.92
2022-10-22T00:23:46.223Z,90.89
2022-10-22T00:26:16.880Z,90.89
2022-10-22T00:28:47.183Z,90.88
2022-10-22T00:31:19.148Z,90.88
2022-10-22T00:33:49.673Z,90.89
2022-10-22T00:36:20.054Z,90.90
2022-10-22T00:38:50.447Z,90.89
2022-10-22T00:41:21.154Z,90.94
2022-10-22T00:44:00.419Z,90.94
2022-10-22T00:46:31.412Z,90.97
2022-10-22T00:49:05.092Z,90.97
2022-10-22T00:51:36.959Z,91.00
2022-10-22T00:54:09.780Z,91.00
2022-10-22T00:56:40.353Z,91.03
2022-10-22T00:59:12.769Z,91.02
2022-10-22T01:01:43.493Z,91.04
2022-10-22T01:04:14.024Z,91.04
2022-10-22T01:06:44.617Z,91.07
2022-10-22T01:09:33.134Z,91.04
2022-10-22T01:12:21.666Z,91.03
2022-10-22T01:15:00.861Z,91.07
2022-10-22T01:17:37.639Z,91.04
2022-10-22T01:20:20.308Z,91.03
2022-10-22T01:23:05.462Z,91.03
2022-10-22T01:25:41.301Z,91.03
2022-10-22T01:28:20.330Z,91.00
2022-10-22T01:30:53.362Z,90.99
2022-10-22T01:33:27.017Z,91.00
2022-10-22T01:36:00.005Z,91.00
2022-10-22T01:38:31.585Z,91.01
2022-10-22T01:41:03.014Z,90.99
2022-10-22T01:43:33.485Z,91.02
2022-10-22T01:46:08.005Z,91.01
2022-10-22T01:48:52.872Z,91.00
2022-10-22T01:51:31.831Z,91.00
2022-10-22T01:54:22.466Z,91.01
2022-10-22T01:57:09.415Z,91.00
2022-10-22T01:59:45.549Z,91.04
2022-10-22T02:02:38.826Z,91.01
2022-10-22T02:05:24.528Z,91.04
2022-10-22T02:07:57.991Z,91.03
2022-10-22T02:10:29.466Z,91.04
2022-10-22T02:13:02.130Z,91.03
2022-10-22T02:15:35.641Z,91.04
2022-10-22T02:18:08.773Z,91.05
2022-10-22T02:20:41.692Z,91.03
2022-10-22T02:23:12.907Z,91.02
2022-10-22T02:25:45.673Z,91.02
2022-10-22T02:28:32.658Z,91.04
2022-10-22T02:31:05.680Z,91.05
2022-10-22T02:33:42.038Z,91.05
2022-10-22T02:36:13.323Z,91.06
2022-10-22T02:38:44.946Z,91.04
2022-10-22T02:41:17.137Z,91.04
2022-10-22T02:43:53.266Z,91.11
2022-10-22T02:46:25.258Z,91.07
2022-10-22T02:48:55.868Z,91.09
2022-10-22T02:51:26.375Z,91.10
2022-10-22T02:53:56.965Z,91.10
2022-10-22T02:56:27.614Z,91.10
2022-10-22T02:58:58.201Z,91.09
2022-10-22T03:01:28.858Z,91.09
2022-10-22T03:03:59.429Z,91.07
2022-10-22T03:06:29.955Z,91.05
2022-10-22T03:09:00.558Z,91.02
2022-10-22T03:11:31.148Z,91.04
2022-10-22T03:14:01.538Z,91.03
2022-10-22T03:16:31.937Z,91.04
2022-10-22T03:19:02.514Z,91.03
2022-10-22T03:21:36.093Z,91.06
2022-10-22T03:24:09.850Z,91.07
2022-10-22T03:26:42.332Z,91.07
2022-10-22T03:29:15.932Z,91.09
2022-10-22T03:31:46.324Z,91.09
2022-10-22T03:34:17.412Z,91.10
2022-10-22T03:36:49.488Z,91.09
2022-10-22T03:39:20.629Z,91.13
2022-10-22T03:41:53.195Z,91.10
2022-10-22T03:44:24.208Z,91.12
2022-10-22T03:46:58.605Z,91.10
2022-10-22T03:49:26.878Z,91.14
2022-10-22T03:51:57.414Z,91.14
2022-10-22T03:54:27.963Z,91.15
2022-10-22T03:56:58.402Z,91.15
2022-10-22T03:59:28.769Z,91.14
2022-10-22T04:01:59.103Z,91.15
2022-10-22T04:04:30.169Z,91.16
2022-10-22T04:07:00.890Z,91.17
2022-10-22T04:09:35.745Z,91.18
2022-10-22T04:12:07.929Z,91.19
2022-10-22T04:14:38.405Z,91.17
2022-10-22T04:17:08.909Z,91.16
2022-10-22T04:19:39.432Z,91.18
2022-10-22T04:22:10.081Z,91.19
2022-10-22T04:24:40.546Z,91.19
2022-10-22T04:27:11.030Z,91.17
2022-10-22T04:29:41.405Z,91.17
2022-10-22T04:32:12.099Z,91.21
2022-10-22T04:34:42.427Z,91.21
2022-10-22T04:37:13.050Z,91.20
2022-10-22T04:39:43.399Z,91.19
2022-10-22T04:42:13.789Z,91.22
2022-10-22T04:44:44.209Z,91.18
2022-10-22T04:47:14.528Z,91.18
2022-10-22T04:49:44.842Z,91.23
2022-10-22T04:52:15.182Z,91.20
2022-10-22T04:54:45.588Z,91.21
2022-10-22T04:57:16.074Z,91.22
2022-10-22T04:59:46.463Z,91.22
2022-10-22T05:02:16.799Z,91.20
2022-10-22T05:04:47.199Z,91.19
2022-10-22T05:07:17.616Z,91.19
2022-10-22T05:09:48.078Z,91.19
2022-10-22T05:12:18.536Z,91.20
2022-10-22T05:14:48.991Z,91.19
2022-10-22T05:17:19.388Z,91.19
2022-10-22T05:19:49.882Z,91.19
2022-10-22T05:22:20.449Z,91.17
2022-10-22T05:24:50.828Z,91.17
2022-10-22T05:27:21.241Z,91.16
2022-10-22T05:29:51.586Z,91.15
2022-10-22T05:32:22.118Z,91.18
2022-10-22T05:34:52.517Z,91.19
2022-10-22T05:37:23.461Z,91.19
2022-10-22T05:40:01.839Z,91.19
2022-10-22T05:42:26.436Z,91.19
2022-10-22T05:44:56.893Z,91.18
2022-10-22T05:47:27.258Z,91.21
2022-10-22T05:49:57.973Z,91.18
2022-10-22T05:52:28.395Z,91.21
2022-10-22T05:54:58.819Z,91.22
2022-10-22T05:57:29.224Z,91.21
2022-10-22T05:59:59.730Z,91.19
2022-10-22T06:02:30.390Z,91.20
2022-10-22T06:05:00.895Z,91.19
2022-10-22T06:07:33.199Z,91.21
2022-10-22T06:10:03.584Z,91.22
2022-10-22T06:12:34.037Z,91.21
2022-10-22T06:15:05.077Z,91.23
2022-10-22T06:17:35.506Z,91.19
2022-10-22T06:20:06.903Z,91.24
2022-10-22T06:22:37.393Z,91.21
2022-10-22T06:25:08.952Z,91.19
2022-10-22T06:27:39.359Z,91.21
2022-10-22T06:30:10.962Z,91.18
2022-10-22T06:32:41.856Z,91.20
2022-10-22T06:35:13.040Z,91.18
2022-10-22T06:37:43.501Z,91.20
2022-10-22T06:40:14.424Z,91.13
2022-10-22T06:42:44.906Z,91.12
2022-10-22T06:45:15.504Z,91.11
2022-10-22T06:47:47.162Z,91.05
2022-10-22T06:50:17.760Z,91.01
2022-10-22T06:52:48.140Z,91.03
2022-10-22T06:55:18.718Z,90.98
2022-10-22T06:57:49.104Z,90.96
2022-10-22T07:00:19.770Z,90.96
2022-10-22T07:02:57.698Z,90.94
2022-10-22T07:05:26.116Z,90.87
2022-10-22T07:07:56.450Z,90.85
2022-10-22T07:10:29.924Z,90.81
2022-10-22T07:12:59.499Z,90.81
2022-10-22T07:15:29.861Z,90.81
2022-10-22T07:18:00.171Z,90.78
2022-10-22T07:20:30.500Z,90.75
2022-10-22T07:23:00.942Z,90.73
2022-10-22T07:25:31.462Z,90.69
2022-10-22T07:28:01.857Z,90.65
2022-10-22T07:30:32.283Z,90.62
2022-10-22T07:33:02.750Z,90.59
2022-10-22T07:35:34.511Z,90.55
2022-10-22T07:38:05.377Z,90.53
2022-10-22T07:40:36.588Z,90.46
2022-10-22T07:43:07.083Z,90.42
2022-10-22T07:45:37.857Z,90.28
2022-10-22T07:48:08.607Z,90.18
2022-10-22T07:50:39.274Z,90.10
2022-10-22T07:53:10.042Z,89.98
2022-10-22T07:55:40.471Z,89.91
2022-10-22T07:58:10.863Z,89.79
2022-10-22T08:00:41.328Z,89.73
2022-10-22T08:03:13.800Z,89.57
2022-10-22T08:05:44.953Z,89.44
2022-10-22T08:08:17.119Z,89.38
2022-10-22T08:10:48.852Z,89.38
2022-10-22T08:13:19.745Z,89.41
2022-10-22T08:15:53.670Z,89.47
2022-10-22T08:18:23.890Z,89.47
2022-10-22T08:20:56.105Z,89.41
2022-10-22T08:23:28.686Z,89.39
2022-10-22T08:25:59.547Z,89.42
2022-10-22T08:28:31.191Z,89.26
2022-10-22T08:31:01.653Z,89.17
2022-10-22T08:33:32.433Z,89.08
2022-10-22T08:36:03.019Z,89.21
2022-10-22T08:38:35.137Z,89.24
2022-10-22T08:41:08.967Z,89.21
2022-10-22T08:43:42.924Z,89.22
2022-10-22T08:46:34.676Z,89.16
2022-10-22T08:51:40.566Z,89.16
2022-10-22T08:54:29.034Z,89.15
2022-10-22T08:57:14.606Z,89.20
2022-10-22T09:00:14.082Z,89.18
2022-10-22T09:03:02.763Z,89.20
2022-10-22T09:05:52.825Z,89.18
2022-10-22T09:08:24.358Z,89.25
2022-10-22T09:11:16.079Z,89.25
2022-10-22T09:13:47.789Z,89.13
2022-10-22T09:16:21.589Z,89.15
2022-10-22T09:19:11.561Z,89.09
2022-10-22T09:21:57.087Z,89.10
2022-10-22T09:24:36.950Z,89.16
2022-10-22T09:27:19.668Z,88.99
2022-10-22T09:29:50.053Z,89.04
2022-10-22T09:32:20.967Z,88.81
2022-10-22T09:34:53.399Z,88.74
2022-10-22T09:37:29.937Z,88.82
2022-10-22T09:40:03.422Z,88.68
2022-10-22T09:42:34.850Z,88.90
2022-10-22T09:45:05.688Z,88.81
2022-10-22T09:48:00.611Z,88.64
2022-10-22T09:50:22.609Z,88.49
2022-10-22T09:53:08.094Z,88.08
2022-10-22T09:55:42.885Z,88.10
2022-10-22T09:58:14.826Z,88.04
2022-10-22T10:00:48.081Z,88.21
2022-10-22T10:03:24.096Z,88.36
2022-10-22T10:06:01.375Z,88.57
2022-10-22T10:08:29.644Z,88.62
2022-10-22T10:11:08.852Z,88.56
2022-10-22T10:14:03.541Z,88.40
2022-10-22T10:16:56.506Z,88.51
2022-10-22T10:19:30.069Z,88.53
2022-10-22T10:22:12.067Z,88.52
2022-10-22T10:25:14.237Z,88.43
2022-10-22T10:27:59.576Z,88.62
2022-10-22T10:30:31.724Z,88.63
2022-10-22T10:33:14.965Z,88.55
2022-10-22T10:35:55.100Z,87.84
2022-10-22T10:38:52.618Z,88.24
2022-10-22T10:41:47.201Z,87.99
2022-10-22T10:44:26.554Z,87.88
2022-10-22T10:47:15.085Z,88.25
2022-10-22T10:49:45.525Z,87.83
2022-10-22T10:52:21.857Z,87.69
2022-10-22T10:54:59.914Z,87.51
2022-10-22T10:57:35.932Z,86.88
2022-10-22T11:00:19.812Z,86.62
2022-10-22T11:05:35.421Z,86.12
2022-10-22T11:08:25.365Z,85.68
2022-10-22T11:11:13.753Z,84.32
2022-10-22T11:13:50.008Z,84.15
2022-10-22T11:16:29.672Z,84.69
2022-10-22T11:19:04.245Z,83.34
2022-10-22T11:21:49.908Z,82.87
2022-10-22T11:24:34.323Z,83.24
2022-10-22T11:27:24.039Z,82.92
2022-10-22T11:30:00.196Z,81.96
2022-10-22T11:32:32.537Z,80.23
2022-10-22T11:35:05.938Z,80.07
2022-10-22T11:37:39.101Z,76.71
2022-10-22T11:40:12.921Z,74.80
2022-10-22T11:42:46.733Z,72.92
2022-10-22T11:45:20.287Z,73.93
2022-10-22T11:48:13.677Z,73.87
2022-10-22T11:51:00.891Z,74.00
2022-10-22T11:53:39.675Z,74.97
2022-10-22T11:56:13.220Z,75.35
2022-10-22T11:58:47.695Z,75.33
2022-10-22T12:01:28.178Z,76.57
2022-10-22T12:04:07.809Z,75.68
2022-10-22T12:07:02.201Z,75.92
2022-10-22T12:09:34.437Z,74.13
2022-10-22T12:12:07.818Z,74.66
2022-10-22T12:14:59.333Z,75.20
2022-10-22T12:17:30.422Z,75.01
2022-10-22T12:20:03.999Z,76.32
2022-10-22T12:22:38.706Z,76.35
2022-10-22T12:25:14.928Z,76.38
2022-10-22T12:27:45.460Z,77.13
2022-10-22T12:30:24.750Z,78.20
2022-10-22T12:32:57.828Z,79.38
2022-10-22T12:35:31.077Z,79.15
2022-10-22T12:38:10.242Z,78.86
2022-10-22T12:40:45.950Z,78.85
2022-10-22T12:43:16.486Z,78.47
2022-10-22T12:45:49.288Z,78.03
2022-10-22T12:48:28.356Z,77.79
2022-10-22T12:51:01.074Z,77.28
2022-10-22T12:53:34.883Z,77.50
2022-10-22T12:56:08.342Z,78.15
2022-10-22T12:58:48.059Z,78.09
2022-10-22T13:01:19.437Z,76.74
2022-10-22T13:03:55.875Z,76.47
2022-10-22T13:06:27.181Z,75.73
2022-10-22T13:09:17.437Z,75.39
2022-10-22T13:12:01.642Z,75.94
2022-10-22T13:14:34.467Z,75.03
2022-10-22T13:17:14.923Z,76.83
2022-10-22T13:19:54.829Z,76.04
2022-10-22T13:22:41.338Z,74.57
2022-10-22T13:25:22.664Z,75.16
2022-10-22T13:28:02.748Z,75.04
2022-10-22T13:30:36.171Z,74.99
2022-10-22T13:33:09.652Z,75.19
2022-10-22T13:35:40.221Z,74.13
2022-10-22T13:38:19.739Z,73.26
2022-10-22T13:40:51.105Z,73.86
2022-10-22T13:43:21.804Z,74.24
2022-10-22T13:45:55.208Z,74.95
2022-10-22T13:48:28.227Z,75.33
2022-10-22T13:50:58.725Z,75.51
2022-10-22T13:53:31.054Z,75.56
2022-10-22T13:56:01.558Z,75.55
2022-10-22T13:58:31.950Z,75.78
2022-10-22T14:01:05.698Z,75.49
2022-10-22T14:03:38.369Z,75.88
2022-10-22T14:06:14.020Z,76.42
2022-10-22T14:08:48.327Z,74.72
2022-10-22T14:11:19.065Z,73.36
2022-10-22T14:13:49.459Z,74.28
2022-10-22T14:16:22.999Z,75.81
2022-10-22T14:18:55.090Z,74.39
2022-10-22T14:21:25.912Z,75.08
2022-10-22T14:23:56.282Z,75.40
2022-10-22T14:26:33.056Z,75.44
2022-10-22T14:29:11.991Z,76.10
2022-10-22T14:31:37.434Z,75.34
2022-10-22T14:34:07.967Z,75.38
2022-10-22T14:36:38.446Z,75.44
2022-10-22T14:39:08.837Z,75.88
2022-10-22T14:41:39.696Z,76.26
2022-10-22T14:44:14.873Z,76.40
2022-10-22T14:46:46.647Z,76.63
2022-10-22T14:49:17.035Z,77.10
2022-10-22T14:51:47.960Z,77.19
2022-10-22T14:54:18.482Z,77.45
2022-10-22T14:56:48.864Z,77.63
2022-10-22T14:59:19.268Z,77.50
2022-10-22T15:01:49.654Z,77.95
2022-10-22T15:04:20.088Z,78.00
2022-10-22T15:06:50.467Z,78.09
2022-10-22T15:09:20.914Z,77.62
2022-10-22T15:11:52.284Z,77.89
2022-10-22T15:14:22.670Z,78.80
2022-10-22T15:16:52.969Z,77.93
2022-10-22T15:19:23.444Z,78.40
2022-10-22T15:21:53.748Z,78.14
2022-10-22T15:24:24.171Z,78.30
2022-10-22T15:26:55.359Z,78.80
2022-10-22T15:29:25.716Z,79.15
2022-10-22T15:32:00.706Z,80.21
2022-10-22T15:34:35.895Z,80.21
2022-10-22T15:37:08.965Z,80.36
2022-10-22T15:39:43.061Z,80.79
2022-10-22T15:42:14.678Z,81.82
2022-10-22T15:44:45.646Z,81.76
2022-10-22T15:47:16.086Z,81.41
2022-10-22T15:49:46.550Z,82.38
2022-10-22T15:52:16.958Z,82.35
2022-10-22T15:54:47.349Z,82.60
2022-10-22T15:57:17.824Z,82.05
2022-10-22T15:59:49.960Z,82.75
2022-10-22T16:02:20.402Z,82.65
2022-10-22T16:04:50.781Z,82.62
2022-10-22T16:07:23.942Z,83.20
2022-10-22T16:09:58.590Z,83.55
2022-10-22T16:12:29.021Z,84.14
2022-10-22T16:14:59.281Z,84.12
2022-10-22T16:17:29.814Z,84.66
2022-10-22T16:20:00.353Z,84.72
2022-10-22T16:22:30.850Z,85.19
2022-10-22T16:25:01.431Z,85.33
2022-10-22T16:27:31.782Z,85.33
2022-10-22T16:30:02.346Z,85.23
2022-10-22T16:32:32.765Z,85.05
2022-10-22T16:35:03.087Z,85.56
2022-10-22T16:37:33.442Z,85.71
2022-10-22T16:40:08.070Z,85.69
2022-10-22T16:42:35.990Z,85.82
2022-10-22T16:45:08.282Z,85.99
2022-10-22T16:47:39.641Z,86.02
2022-10-22T16:50:10.983Z,85.50
2022-10-22T16:52:41.295Z,85.40
2022-10-22T16:55:11.726Z,85.59
2022-10-22T16:57:42.550Z,85.96
2022-10-22T17:00:14.392Z,86.34
2022-10-22T17:02:44.851Z,86.59
2022-10-22T17:05:15.270Z,86.65
2022-10-22T17:07:45.727Z,86.80
2022-10-22T17:10:16.970Z,86.84
2022-10-22T17:12:48.220Z,86.85
2022-10-22T17:15:18.782Z,86.99
2022-10-22T17:17:50.878Z,87.02
2022-10-22T17:20:21.466Z,86.58
2022-10-22T17:22:59.525Z,86.52
2022-10-22T17:25:45.740Z,86.66
2022-10-22T17:28:16.188Z,86.52
2022-10-22T17:30:46.575Z,86.59
2022-10-22T17:33:16.878Z,86.35
2022-10-22T17:35:48.845Z,85.65
2022-10-22T17:38:19.245Z,84.78
2022-10-22T17:40:50.096Z,85.10
2022-10-22T17:43:20.407Z,83.92
2022-10-22T17:45:50.754Z,83.66
2022-10-22T17:48:21.056Z,83.33
2022-10-22T17:50:53.655Z,83.06
2022-10-22T17:53:23.415Z,83.33
2022-10-22T17:56:01.935Z,82.88
2022-10-22T17:58:32.333Z,83.07
2022-10-22T18:01:03.085Z,82.95
2022-10-22T18:03:35.788Z,82.78
2022-10-22T18:06:10.554Z,83.25
2022-10-22T18:08:41.143Z,83.21
2022-10-22T18:11:14.805Z,83.45
2022-10-22T18:13:46.814Z,83.15
2022-10-22T18:16:17.772Z,83.27
2022-10-22T18:18:55.847Z,83.50
2022-10-22T18:21:28.582Z,83.28
2022-10-22T18:23:59.955Z,83.94
2022-10-22T18:26:30.348Z,84.16
2022-10-22T18:29:00.755Z,83.72
2022-10-22T18:31:31.149Z,83.59
2022-10-22T18:34:01.501Z,83.54
2022-10-22T18:36:31.869Z,83.76
2022-10-22T18:39:04.105Z,83.44
2022-10-22T18:41:35.892Z,82.94
2022-10-22T18:44:07.744Z,83.36
2022-10-22T18:46:40.932Z,83.31
2022-10-22T18:49:14.416Z,82.88
2022-10-22T18:51:46.466Z,81.54
2022-10-22T18:54:24.778Z,81.25
2022-10-22T18:56:49.138Z,80.97
2022-10-22T18:59:22.103Z,81.13
2022-10-22T19:01:58.488Z,80.83
2022-10-22T19:04:33.774Z,80.65
2022-10-22T19:07:07.330Z,80.87
2022-10-22T19:09:38.010Z,81.11
2022-10-22T19:12:09.035Z,81.99
2022-10-22T19:14:39.420Z,81.71
2022-10-22T19:17:10.271Z,81.88
2022-10-22T19:19:40.754Z,83.32
2022-10-22T19:22:11.220Z,82.69
2022-10-22T19:24:41.655Z,83.84
2022-10-22T19:27:12.166Z,82.98
2022-10-22T19:29:44.900Z,82.46
2022-10-22T19:32:15.377Z,82.02
2022-10-22T19:34:46.490Z,83.02
2022-10-22T19:37:16.804Z,82.81
2022-10-22T19:39:48.823Z,82.63
2022-10-22T19:42:20.682Z,82.74
2022-10-22T19:44:51.106Z,82.38
2022-10-22T19:47:21.930Z,82.24
2022-10-22T19:49:52.255Z,81.91
2022-10-22T19:52:22.762Z,82.44
2022-10-22T19:54:53.105Z,82.30
2022-10-22T19:57:25.145Z,81.83
2022-10-22T19:59:55.517Z,81.86
2022-10-22T20:02:26.627Z,82.27
2022-10-22T20:04:57.019Z,82.28
2022-10-22T20:07:32.150Z,82.04
2022-10-22T20:10:02.656Z,81.50
2022-10-22T20:12:33.434Z,82.43
2022-10-22T20:15:03.842Z,82.27
2022-10-22T20:17:34.252Z,82.18
2022-10-22T20:20:05.249Z,82.43
2022-10-22T20:22:35.679Z,82.38
2022-10-22T20:25:07.046Z,82.91
2022-10-22T20:27:38.984Z,83.17
2022-10-22T20:30:10.487Z,82.40
2022-10-22T20:32:41.452Z,83.00
2022-10-22T20:35:16.394Z,83.07
2022-10-22T20:37:47.346Z,82.45
2022-10-22T20:40:18.340Z,82.65
2022-10-22T20:42:49.418Z,82.74
2022-10-22T20:45:19.736Z,82.69
2022-10-22T20:47:51.576Z,82.89
2022-10-22T20:50:24.752Z,82.39
2022-10-22T20:52:55.534Z,82.03
2022-10-22T20:55:26.205Z,82.39
2022-10-22T20:57:56.662Z,82.39
2022-10-22T21:00:27.327Z,82.82
2022-10-22T21:02:57.722Z,82.87
2022-10-22T21:05:28.274Z,83.07
2022-10-22T21:07:58.792Z,83.41
2022-10-22T21:10:32.535Z,82.99
2022-10-22T21:13:02.198Z,83.10
2022-10-22T21:15:32.675Z,83.31
2022-10-22T21:18:03.024Z,83.27
2022-10-22T21:20:33.336Z,83.72
2022-10-22T21:23:03.740Z,84.05
2022-10-22T21:25:34.089Z,83.57
2022-10-22T21:28:04.357Z,83.56
2022-10-22T21:30:34.777Z,84.04
2022-10-22T21:33:05.097Z,83.46
2022-10-22T21:35:35.588Z,83.97
2022-10-22T21:38:07.842Z,83.59
2022-10-22T21:40:38.144Z,83.54
2022-10-22T21:43:08.486Z,83.87
2022-10-22T21:45:39.184Z,83.19
2022-10-22T21:48:09.730Z,83.57
2022-10-22T21:50:42.023Z,83.74
2022-10-22T21:53:13.286Z,84.00
2022-10-22T21:55:43.691Z,83.90
2022-10-22T21:58:14.034Z,83.89
2022-10-22T22:00:46.039Z,83.96
2022-10-22T22:03:16.516Z,83.84
2022-10-22T22:05:46.871Z,84.05
2022-10-22T22:08:17.486Z,84.31
2022-10-22T22:10:47.888Z,84.34
2022-10-22T22:13:18.416Z,84.41
2022-10-22T22:15:48.813Z,84.70
2022-10-22T22:18:19.723Z,84.99
2022-10-22T22:20:50.116Z,84.82
2022-10-22T22:23:20.473Z,84.81
2022-10-22T22:25:50.861Z,85.30
2022-10-22T22:28:21.253Z,85.46
2022-10-22T22:30:51.641Z,85.63
2022-10-22T22:33:22.247Z,85.67
2022-10-22T22:35:53.083Z,85.44
2022-10-22T22:38:25.907Z,85.63
2022-10-22T22:40:56.270Z,85.92
2022-10-22T22:43:26.645Z,86.07
2022-10-22T22:46:01.907Z,86.29
2022-10-22T22:48:33.183Z,85.89
2022-10-22T22:51:06.480Z,86.02
2022-10-22T22:53:36.972Z,86.04
2022-10-22T22:56:13.399Z,86.32
2022-10-22T22:58:44.615Z,86.29
2022-10-22T23:01:23.540Z,86.24
2022-10-22T23:04:02.597Z,86.67
2022-10-22T23:06:37.976Z,86.58
2022-10-22T23:09:11.695Z,86.65
2022-10-22T23:11:44.633Z,86.75
2022-10-22T23:14:16.805Z,86.49
2022-10-22T23:16:50.464Z,86.81
2022-10-22T23:19:23.357Z,86.90
2022-10-22T23:21:57.243Z,86.78
2022-10-22T23:24:29.471Z,86.81
2022-10-22T23:27:02.792Z,86.84
2022-10-22T23:29:36.484Z,86.95
2022-10-22T23:32:09.191Z,86.97
2022-10-22T23:34:39.558Z,86.70
2022-10-22T23:37:12.685Z,86.77
2022-10-22T23:39:43.040Z,86.83
2022-10-22T23:42:13.352Z,87.00
2022-10-22T23:44:43.823Z,87.14
2022-10-22T23:47:14.221Z,87.08
2022-10-22T23:49:44.549Z,86.85
2022-10-22T23:52:15.051Z,86.72
2022-10-22T23:54:45.528Z,87.05
2022-10-22T23:57:15.961Z,87.17
2022-10-22T23:59:46.346Z,87.29
